createdAt,value
2019-05-05T00:00:57.987Z,12.41
2019-05-05T00:03:36.038Z,12.34
2019-05-05T00:06:07.352Z,12.23
2019-05-05T00:08:37.086Z,12.38
2019-05-05T00:11:26.573Z,12.09
2019-05-05T00:13:57.780Z,12.06
2019-05-05T00:16:35.147Z,12.22
2019-05-05T00:19:04.917Z,12.27
2019-05-05T00:21:34.484Z,12.25
2019-05-05T00:24:04.626Z,12.23
2019-05-05T00:26:34.960Z,12.58
2019-05-05T00:29:05.704Z,12.39
2019-05-05T00:31:36.432Z,12.53
2019-05-05T00:34:06.032Z,12.33
2019-05-05T00:36:35.822Z,12.25
2019-05-05T00:39:08.385Z,12.63
2019-05-05T00:41:37.941Z,12.45
2019-05-05T00:44:07.500Z,12.33
2019-05-05T00:46:38.604Z,12.30
2019-05-05T00:49:08.161Z,12.28
2019-05-05T00:51:37.733Z,12.39
2019-05-05T00:54:07.268Z,12.30
2019-05-05T00:56:36.953Z,12.28
2019-05-05T00:59:08.187Z,12.17
2019-05-05T01:01:55.287Z,12.23
2019-05-05T01:04:26.595Z,12.24
2019-05-05T01:06:56.286Z,12.32
2019-05-05T01:09:27.758Z,12.45
2019-05-05T01:11:57.643Z,12.35
2019-05-05T01:14:27.198Z,11.97
2019-05-05T01:16:56.829Z,11.91
2019-05-05T01:19:26.317Z,11.89
2019-05-05T01:21:56.034Z,11.82
2019-05-05T01:24:25.911Z,11.68
2019-05-05T01:26:55.566Z,11.49
2019-05-05T01:29:25.386Z,11.54
2019-05-05T01:31:58.139Z,11.54
2019-05-05T01:34:30.463Z,11.72
2019-05-05T01:37:01.677Z,11.76
2019-05-05T01:39:34.546Z,11.57
2019-05-05T01:42:06.081Z,11.65
2019-05-05T01:44:35.752Z,11.61
2019-05-05T01:47:05.467Z,11.49
2019-05-05T01:49:35.050Z,11.33
2019-05-05T01:52:04.657Z,11.25
2019-05-05T01:54:35.313Z,11.44
2019-05-05T01:57:05.956Z,11.39
2019-05-05T01:59:36.122Z,11.31
2019-05-05T02:02:06.600Z,11.34
2019-05-05T02:04:37.545Z,11.22
2019-05-05T02:07:07.412Z,11.22
2019-05-05T02:09:37.053Z,11.27
2019-05-05T02:12:06.745Z,11.34
2019-05-05T02:14:36.448Z,11.44
2019-05-05T02:17:06.014Z,11.46
2019-05-05T02:19:35.584Z,11.46
2019-05-05T02:22:05.509Z,11.47
2019-05-05T02:24:35.482Z,11.18
2019-05-05T02:27:05.404Z,11.29
2019-05-05T02:29:36.677Z,11.36
2019-05-05T02:32:25.753Z,11.37
2019-05-05T02:35:00.324Z,11.19
2019-05-05T02:37:29.890Z,11.30
2019-05-05T02:40:06.345Z,11.50
2019-05-05T02:42:31.887Z,11.30
2019-05-05T02:45:05.704Z,11.32
2019-05-05T02:47:56.584Z,11.38
2019-05-05T02:50:46.712Z,11.51
2019-05-05T02:53:04.054Z,11.15
2019-05-05T02:55:34.990Z,11.13
2019-05-05T02:58:04.680Z,11.25
2019-05-05T03:00:36.005Z,11.47
2019-05-05T03:03:07.272Z,11.26
2019-05-05T03:05:36.941Z,11.19
2019-05-05T03:08:08.268Z,11.36
2019-05-05T03:10:39.034Z,11.27
2019-05-05T03:13:08.793Z,11.05
2019-05-05T03:15:47.083Z,11.12
2019-05-05T03:18:16.672Z,10.96
2019-05-05T03:20:46.288Z,11.02
2019-05-05T03:23:15.897Z,11.06
2019-05-05T03:25:46.161Z,11.05
2019-05-05T03:28:15.714Z,11.33
2019-05-05T03:30:45.793Z,11.21
2019-05-05T03:33:16.446Z,11.29
2019-05-05T03:35:46.330Z,11.18
2019-05-05T03:38:16.895Z,11.17
2019-05-05T03:40:48.127Z,11.05
2019-05-05T03:43:31.503Z,10.82
2019-05-05T03:46:04.409Z,10.82
2019-05-05T03:48:34.704Z,10.94
2019-05-05T03:51:16.047Z,11.16
2019-05-05T03:53:36.345Z,10.93
2019-05-05T03:56:06.040Z,11.03
2019-05-05T03:58:35.598Z,11.01
2019-05-05T04:01:27.878Z,11.04
2019-05-05T04:04:16.464Z,11.09
2019-05-05T04:06:47.101Z,11.07
2019-05-05T04:09:16.663Z,11.17
2019-05-05T04:11:46.423Z,11.05
2019-05-05T04:14:18.390Z,11.36
2019-05-05T04:17:01.134Z,11.20
2019-05-05T04:19:37.946Z,11.06
2019-05-05T04:22:07.510Z,11.23
2019-05-05T04:24:37.079Z,11.26
2019-05-05T04:27:06.672Z,11.41
2019-05-05T04:29:36.287Z,11.25
2019-05-05T04:32:05.775Z,11.19
2019-05-05T04:34:35.228Z,11.17
2019-05-05T04:37:04.840Z,11.06
2019-05-05T04:39:36.284Z,11.19
2019-05-05T04:42:05.840Z,11.58
2019-05-05T04:44:35.501Z,11.59
2019-05-05T04:47:15.752Z,11.52
2019-05-05T04:49:47.428Z,11.38
2019-05-05T04:52:24.626Z,11.26
2019-05-05T04:54:55.796Z,11.27
2019-05-05T04:57:25.764Z,11.22
2019-05-05T04:59:55.294Z,11.21
2019-05-05T05:02:38.363Z,11.29
2019-05-05T05:05:25.009Z,11.45
2019-05-05T05:07:57.694Z,11.66
2019-05-05T05:10:25.921Z,11.84
2019-05-05T05:12:55.412Z,11.80
2019-05-05T05:15:36.632Z,11.93
2019-05-05T05:18:17.611Z,12.03
2019-05-05T05:20:55.224Z,12.00
2019-05-05T05:23:36.443Z,12.42
2019-05-05T05:26:06.092Z,12.21
2019-05-05T05:28:38.531Z,12.26
2019-05-05T05:31:24.343Z,12.36
2019-05-05T05:33:52.114Z,12.14
2019-05-05T05:36:24.764Z,12.02
2019-05-05T05:38:56.160Z,11.94
2019-05-05T05:41:45.173Z,11.89
2019-05-05T05:44:28.088Z,11.91
2019-05-05T05:47:14.112Z,12.01
2019-05-05T05:49:48.424Z,12.10
2019-05-05T05:52:19.275Z,12.11
2019-05-05T05:54:49.105Z,12.33
2019-05-05T05:57:18.662Z,11.99
2019-05-05T05:59:48.334Z,12.07
2019-05-05T06:02:18.004Z,12.22
2019-05-05T06:04:47.574Z,12.33
2019-05-05T06:07:17.134Z,12.32
2019-05-05T06:09:48.257Z,12.37
2019-05-05T06:12:17.769Z,12.53
2019-05-05T06:14:54.413Z,12.82
2019-05-05T06:17:23.981Z,13.00
2019-05-05T06:20:21.463Z,12.80
2019-05-05T06:22:32.217Z,12.84
2019-05-05T06:25:06.157Z,13.31
2019-05-05T06:27:34.446Z,13.41
2019-05-05T06:30:05.278Z,13.31
2019-05-05T06:32:34.771Z,13.29
2019-05-05T06:35:05.061Z,13.34
2019-05-05T06:37:34.819Z,13.21
2019-05-05T06:40:08.051Z,12.91
2019-05-05T06:42:39.180Z,12.75
2019-05-05T06:45:10.502Z,12.82
2019-05-05T06:47:41.563Z,12.91
2019-05-05T06:50:11.476Z,13.11
2019-05-05T06:52:44.465Z,13.24
2019-05-05T06:55:14.091Z,13.43
2019-05-05T06:57:44.415Z,13.32
2019-05-05T07:00:14.532Z,13.35
2019-05-05T07:02:44.531Z,13.43
2019-05-05T07:05:14.414Z,13.33
2019-05-05T07:07:43.984Z,13.56
2019-05-05T07:10:16.684Z,13.71
2019-05-05T07:12:46.337Z,13.88
2019-05-05T07:15:15.995Z,13.77
2019-05-05T07:17:45.605Z,14.08
2019-05-05T07:20:15.368Z,14.20
2019-05-05T07:22:58.372Z,14.26
2019-05-05T07:25:16.220Z,14.38
2019-05-05T07:27:46.068Z,14.40
2019-05-05T07:30:15.673Z,14.30
2019-05-05T07:32:45.279Z,14.14
2019-05-05T07:35:24.600Z,14.09
2019-05-05T07:37:54.332Z,14.66
2019-05-05T07:40:24.173Z,14.98
2019-05-05T07:42:54.078Z,14.90
2019-05-05T07:45:25.886Z,14.98
2019-05-05T07:47:55.055Z,15.00
2019-05-05T07:50:29.555Z,15.11
2019-05-05T07:52:55.844Z,14.96
2019-05-05T07:55:25.338Z,14.93
2019-05-05T07:57:54.819Z,14.55
2019-05-05T08:00:24.454Z,14.55
2019-05-05T08:02:54.501Z,14.66
2019-05-05T08:05:24.683Z,14.99
2019-05-05T08:07:54.354Z,14.90
2019-05-05T08:10:24.227Z,14.84
2019-05-05T08:12:54.318Z,15.00
2019-05-05T08:15:25.559Z,15.19
2019-05-05T08:17:56.762Z,15.30
2019-05-05T08:20:34.048Z,15.25
2019-05-05T08:23:04.615Z,15.23
2019-05-05T08:25:40.379Z,15.92
2019-05-05T08:28:27.701Z,15.82
2019-05-05T08:30:58.932Z,16.30
2019-05-05T08:33:28.411Z,16.89
2019-05-05T08:35:57.903Z,17.05
2019-05-05T08:38:27.620Z,17.19
2019-05-05T08:40:57.113Z,16.88
2019-05-05T08:43:26.834Z,17.43
2019-05-05T08:45:56.567Z,17.32
2019-05-05T08:48:26.120Z,17.02
2019-05-05T08:50:55.678Z,16.74
2019-05-05T08:53:25.180Z,16.52
2019-05-05T08:55:54.759Z,16.56
2019-05-05T08:58:24.349Z,16.64
2019-05-05T09:00:54.061Z,16.73
2019-05-05T09:03:24.297Z,16.37
2019-05-05T09:05:54.298Z,16.48
2019-05-05T09:08:24.267Z,16.53
2019-05-05T09:10:55.210Z,16.87
2019-05-05T09:13:25.007Z,17.11
2019-05-05T09:15:54.578Z,17.12
2019-05-05T09:18:24.682Z,17.28
2019-05-05T09:20:54.458Z,17.46
2019-05-05T09:23:24.181Z,17.48
2019-05-05T09:25:55.316Z,17.58
2019-05-05T09:28:34.145Z,17.92
2019-05-05T09:31:04.261Z,18.22
2019-05-05T09:33:33.997Z,18.23
2019-05-05T09:36:04.672Z,17.81
2019-05-05T09:38:36.000Z,17.83
2019-05-05T09:41:05.557Z,17.59
2019-05-05T09:43:35.219Z,17.55
2019-05-05T09:46:04.854Z,17.56
2019-05-05T09:48:34.417Z,17.45
2019-05-05T09:51:04.461Z,17.39
2019-05-05T09:53:34.636Z,17.34
2019-05-05T09:56:04.284Z,17.27
2019-05-05T09:58:34.783Z,17.66
2019-05-05T10:01:06.522Z,18.12
2019-05-05T10:03:36.260Z,18.29
2019-05-05T10:06:05.861Z,18.33
2019-05-05T10:08:35.736Z,18.13
2019-05-05T10:11:05.309Z,18.26
2019-05-05T10:13:34.780Z,18.36
2019-05-05T10:16:05.773Z,18.39
2019-05-05T10:18:35.988Z,18.24
2019-05-05T10:21:05.944Z,18.08
2019-05-05T10:23:37.025Z,18.17
2019-05-05T10:26:11.182Z,18.08
2019-05-05T10:28:40.882Z,18.16
2019-05-05T10:31:10.478Z,17.98
2019-05-05T10:33:41.750Z,17.59
2019-05-05T10:36:11.464Z,17.59
2019-05-05T10:38:44.469Z,17.55
2019-05-05T10:41:14.344Z,17.69
2019-05-05T10:43:43.989Z,18.24
2019-05-05T10:46:14.348Z,18.50
2019-05-05T10:48:44.603Z,18.42
2019-05-05T10:51:14.154Z,18.20
2019-05-05T10:53:43.996Z,18.14
2019-05-05T10:56:15.125Z,17.83
2019-05-05T10:58:46.353Z,17.99
2019-05-05T11:01:27.999Z,18.02
2019-05-05T11:03:59.948Z,18.17
2019-05-05T11:06:31.000Z,18.06
2019-05-05T11:09:01.415Z,18.00
2019-05-05T11:11:34.393Z,18.12
2019-05-05T11:14:04.614Z,18.32
2019-05-05T11:16:35.085Z,18.22
2019-05-05T11:19:07.879Z,18.53
2019-05-05T11:21:37.521Z,18.77
2019-05-05T11:24:08.721Z,18.70
2019-05-05T11:26:38.338Z,18.55
2019-05-05T11:29:07.895Z,18.51
2019-05-05T11:31:37.401Z,18.51
2019-05-05T11:34:09.039Z,18.71
2019-05-05T11:36:54.270Z,19.29
2019-05-05T11:39:23.610Z,19.57
2019-05-05T11:41:54.800Z,19.27
2019-05-05T11:44:24.525Z,18.94
2019-05-05T11:46:55.164Z,18.94
2019-05-05T11:49:24.720Z,18.76
2019-05-05T11:51:54.421Z,18.75
2019-05-05T11:54:24.690Z,18.75
2019-05-05T11:56:55.431Z,19.50
2019-05-05T11:59:25.433Z,19.85
2019-05-05T12:01:55.287Z,20.22
2019-05-05T12:04:25.775Z,20.30
2019-05-05T12:06:56.136Z,19.86
2019-05-05T12:09:27.482Z,19.65
2019-05-05T12:11:57.167Z,19.51
2019-05-05T12:14:28.390Z,19.57
2019-05-05T12:16:58.951Z,19.56
2019-05-05T12:19:28.520Z,19.48
2019-05-05T12:21:58.964Z,19.25
2019-05-05T12:24:30.089Z,19.04
2019-05-05T12:27:16.542Z,19.29
2019-05-05T12:29:47.305Z,19.11
2019-05-05T12:32:16.842Z,18.98
2019-05-05T12:34:46.546Z,19.06
2019-05-05T12:37:16.254Z,19.10
2019-05-05T12:39:46.084Z,19.05
2019-05-05T12:42:15.708Z,18.92
2019-05-05T12:44:47.027Z,18.87
2019-05-05T12:47:18.391Z,18.74
2019-05-05T12:49:47.995Z,18.75
2019-05-05T12:52:17.521Z,18.86
2019-05-05T12:54:46.953Z,18.91
2019-05-05T12:57:16.734Z,19.39
2019-05-05T12:59:46.177Z,19.89
2019-05-05T13:02:15.962Z,19.98
2019-05-05T13:04:45.621Z,19.76
2019-05-05T13:07:15.140Z,19.77
2019-05-05T13:09:44.709Z,19.98
2019-05-05T13:12:14.999Z,19.92
2019-05-05T13:14:44.867Z,19.79
2019-05-05T13:17:14.730Z,19.60
2019-05-05T13:19:45.870Z,19.44
2019-05-05T13:22:26.475Z,19.57
2019-05-05T13:24:57.609Z,19.54
2019-05-05T13:27:34.092Z,19.23
2019-05-05T13:30:04.393Z,19.25
2019-05-05T13:32:34.070Z,19.26
2019-05-05T13:35:04.615Z,19.17
2019-05-05T13:37:34.178Z,19.35
2019-05-05T13:40:05.019Z,19.40
2019-05-05T13:42:34.645Z,19.58
2019-05-05T13:45:27.238Z,19.40
2019-05-05T13:47:56.787Z,19.41
2019-05-05T13:50:28.019Z,19.11
2019-05-05T13:52:57.576Z,19.28
2019-05-05T13:55:27.142Z,19.01
2019-05-05T13:57:56.817Z,19.05
2019-05-05T14:00:26.855Z,19.14
2019-05-05T14:02:56.617Z,19.05
2019-05-05T14:05:26.249Z,19.13
2019-05-05T14:07:56.081Z,19.24
2019-05-05T14:10:25.717Z,19.26
2019-05-05T14:12:55.681Z,19.13
2019-05-05T14:15:25.556Z,19.30
2019-05-05T14:17:55.276Z,19.31
2019-05-05T14:20:24.880Z,19.28
2019-05-05T14:22:54.972Z,19.17
2019-05-05T14:25:26.379Z,18.87
2019-05-05T14:27:56.042Z,19.16
2019-05-05T14:30:30.727Z,18.92
2019-05-05T14:33:00.855Z,18.98
2019-05-05T14:35:34.105Z,18.96
2019-05-05T14:38:14.581Z,18.97
2019-05-05T14:40:44.597Z,18.99
2019-05-05T14:43:16.768Z,18.98
2019-05-05T14:45:45.673Z,19.23
2019-05-05T14:48:15.303Z,19.27
2019-05-05T14:50:45.255Z,19.15
2019-05-05T14:53:14.825Z,19.02
2019-05-05T14:55:45.534Z,18.91
2019-05-05T14:58:15.041Z,18.84
2019-05-05T15:00:44.675Z,18.94
2019-05-05T15:03:14.233Z,18.79
2019-05-05T15:05:51.223Z,18.90
2019-05-05T15:08:25.152Z,18.94
2019-05-05T15:11:03.657Z,18.68
2019-05-05T15:13:33.706Z,18.52
2019-05-05T15:16:04.137Z,18.40
2019-05-05T15:18:34.592Z,18.21
2019-05-05T15:21:04.278Z,18.13
2019-05-05T15:23:34.477Z,17.97
2019-05-05T15:26:04.647Z,17.84
2019-05-05T15:28:34.244Z,17.81
2019-05-05T15:31:04.210Z,17.77
2019-05-05T15:33:34.111Z,17.69
2019-05-05T15:36:04.434Z,17.52
2019-05-05T15:38:34.819Z,17.57
2019-05-05T15:41:04.806Z,17.66
2019-05-05T15:43:34.509Z,17.63
2019-05-05T15:46:04.584Z,17.62
2019-05-05T15:48:34.648Z,17.58
2019-05-05T15:51:04.407Z,17.60
2019-05-05T15:53:35.066Z,17.68
2019-05-05T15:56:04.805Z,17.56
2019-05-05T15:58:34.467Z,17.67
2019-05-05T16:01:04.037Z,17.73
2019-05-05T16:03:33.551Z,17.55
2019-05-05T16:06:03.830Z,17.39
2019-05-05T16:08:33.970Z,17.31
2019-05-05T16:11:04.082Z,17.39
2019-05-05T16:13:35.351Z,17.31
2019-05-05T16:16:15.340Z,17.44
2019-05-05T16:19:06.313Z,17.29
2019-05-05T16:21:37.470Z,17.19
2019-05-05T16:24:17.691Z,17.14
2019-05-05T16:26:47.260Z,17.06
2019-05-05T16:29:16.829Z,16.84
2019-05-05T16:31:46.454Z,16.85
2019-05-05T16:34:15.950Z,16.95
2019-05-05T16:36:45.513Z,16.73
2019-05-05T16:39:16.421Z,16.68
2019-05-05T16:41:46.159Z,16.54
2019-05-05T16:44:15.894Z,16.38
2019-05-05T16:46:45.635Z,16.06
2019-05-05T16:49:15.207Z,15.74
2019-05-05T16:51:49.357Z,15.60
2019-05-05T16:54:24.230Z,15.34
2019-05-05T16:56:54.901Z,15.31
2019-05-05T16:59:24.407Z,15.28
2019-05-05T17:01:54.208Z,15.07
2019-05-05T17:04:24.386Z,15.07
2019-05-05T17:06:59.237Z,14.86
2019-05-05T17:09:29.249Z,14.75
2019-05-05T17:12:10.732Z,14.63
2019-05-05T17:14:54.638Z,14.50
2019-05-05T17:17:28.614Z,14.38
2019-05-05T17:19:59.860Z,14.42
2019-05-05T17:22:30.991Z,14.32
2019-05-05T17:25:01.537Z,14.43
2019-05-05T17:27:31.298Z,14.35
2019-05-05T17:30:00.832Z,14.34
2019-05-05T17:32:30.529Z,14.45
2019-05-05T17:35:00.092Z,14.42
2019-05-05T17:37:29.960Z,14.27
2019-05-05T17:40:01.094Z,14.27
2019-05-05T17:42:49.634Z,14.18
2019-05-05T17:45:26.713Z,14.20
2019-05-05T17:48:06.993Z,14.15
2019-05-05T17:50:54.601Z,14.20
2019-05-05T17:53:43.630Z,14.08
2019-05-05T17:56:14.072Z,14.21
2019-05-05T17:58:44.471Z,14.24
2019-05-05T18:01:15.476Z,14.23
2019-05-05T18:03:45.193Z,14.22
2019-05-05T18:06:20.789Z,14.03
2019-05-05T18:08:53.798Z,14.14
2019-05-05T18:11:30.993Z,14.13
2019-05-05T18:14:05.267Z,14.21
2019-05-05T18:16:34.688Z,14.25
2019-05-05T18:19:04.551Z,14.31
2019-05-05T18:21:34.816Z,14.33
2019-05-05T18:24:04.845Z,14.31
2019-05-05T18:26:34.382Z,14.33
2019-05-05T18:29:04.034Z,14.29
2019-05-05T18:31:34.013Z,14.36
2019-05-05T18:34:05.285Z,14.43
2019-05-05T18:36:35.050Z,14.46
2019-05-05T18:39:07.540Z,14.25
2019-05-05T18:41:56.433Z,14.19
2019-05-05T18:44:34.979Z,14.15
2019-05-05T18:47:15.747Z,14.08
2019-05-05T18:49:43.747Z,14.08
2019-05-05T18:52:13.989Z,14.09
2019-05-05T18:54:43.851Z,14.19
2019-05-05T18:57:13.874Z,14.25
2019-05-05T18:59:44.728Z,14.04
2019-05-05T19:02:23.923Z,14.37
2019-05-05T19:04:54.922Z,14.41
2019-05-05T19:07:26.237Z,14.40
2019-05-05T19:09:56.997Z,14.29
2019-05-05T19:12:26.782Z,14.30
2019-05-05T19:14:56.316Z,14.23
2019-05-05T19:17:28.547Z,14.24
2019-05-05T19:19:58.893Z,14.21
2019-05-05T19:22:28.541Z,14.22
2019-05-05T19:24:59.849Z,14.30
2019-05-05T19:27:29.427Z,14.27
2019-05-05T19:29:58.985Z,14.28
2019-05-05T19:32:28.453Z,14.22
2019-05-05T19:34:57.945Z,14.29
2019-05-05T19:37:28.558Z,14.18
2019-05-05T19:39:58.056Z,14.28
2019-05-05T19:42:27.616Z,14.21
2019-05-05T19:44:57.227Z,14.14
2019-05-05T19:47:26.646Z,14.10
2019-05-05T19:49:57.897Z,14.25
2019-05-05T19:52:28.838Z,14.15
2019-05-05T19:54:58.682Z,14.18
2019-05-05T19:57:28.363Z,13.88
2019-05-05T19:59:57.925Z,14.04
2019-05-05T20:02:27.538Z,14.17
2019-05-05T20:04:57.041Z,14.10
2019-05-05T20:07:26.478Z,13.98
2019-05-05T20:09:55.979Z,14.10
2019-05-05T20:12:25.585Z,14.09
2019-05-05T20:14:55.361Z,14.03
2019-05-05T20:17:26.555Z,14.11
2019-05-05T20:19:56.155Z,14.07
2019-05-05T20:22:25.710Z,14.01
2019-05-05T20:24:55.216Z,13.88
2019-05-05T20:27:24.701Z,13.90
2019-05-05T20:29:54.189Z,13.77
2019-05-05T20:32:25.353Z,13.83
2019-05-05T20:35:14.900Z,13.91
2019-05-05T20:37:54.123Z,13.86
2019-05-05T20:40:25.416Z,13.92
2019-05-05T20:42:54.915Z,13.88
2019-05-05T20:45:26.095Z,13.83
2019-05-05T20:47:55.578Z,13.79
2019-05-05T20:50:25.139Z,13.77
2019-05-05T20:52:54.730Z,13.74
2019-05-05T20:55:25.899Z,13.73
2019-05-05T20:57:56.720Z,13.76
2019-05-05T21:00:26.298Z,13.73
2019-05-05T21:02:55.883Z,13.78
2019-05-05T21:05:25.443Z,13.69
2019-05-05T21:07:54.911Z,13.71
2019-05-05T21:10:24.425Z,13.76
2019-05-05T21:12:54.505Z,13.71
2019-05-05T21:15:24.697Z,13.63
2019-05-05T21:17:54.462Z,13.61
2019-05-05T21:20:24.198Z,13.80
2019-05-05T21:23:04.585Z,13.83
2019-05-05T21:25:44.385Z,13.96
2019-05-05T21:28:14.630Z,13.95
2019-05-05T21:30:44.260Z,13.87
2019-05-05T21:33:13.778Z,13.88
2019-05-05T21:35:44.074Z,13.99
2019-05-05T21:38:14.232Z,13.79
2019-05-05T21:40:44.141Z,13.78
2019-05-05T21:43:15.367Z,13.79
2019-05-05T21:45:45.135Z,13.74
2019-05-05T21:48:14.630Z,13.88
2019-05-05T21:50:45.863Z,13.83
2019-05-05T21:53:28.443Z,13.80
2019-05-05T21:56:04.196Z,13.82
2019-05-05T21:58:36.040Z,13.80
2019-05-05T22:01:08.062Z,13.93
2019-05-05T22:03:38.990Z,13.89
2019-05-05T22:06:08.653Z,13.81
2019-05-05T22:08:38.358Z,13.94
2019-05-05T22:11:08.467Z,13.89
2019-05-05T22:13:37.956Z,13.91
2019-05-05T22:16:07.441Z,13.79
2019-05-05T22:18:37.081Z,13.79
2019-05-05T22:21:11.080Z,13.66
2019-05-05T22:23:40.536Z,13.44
2019-05-05T22:26:10.019Z,13.33
2019-05-05T22:28:39.441Z,13.29
2019-05-05T22:31:08.997Z,13.50
2019-05-05T22:33:38.449Z,13.40
2019-05-05T22:36:07.946Z,13.58
2019-05-05T22:38:37.578Z,13.57
2019-05-05T22:41:07.068Z,13.45
2019-05-05T22:43:36.625Z,13.43
2019-05-05T22:46:06.183Z,13.33
2019-05-05T22:48:36.949Z,13.37
2019-05-05T22:51:06.476Z,13.40
2019-05-05T22:53:35.961Z,13.61
2019-05-05T22:56:05.521Z,13.70
2019-05-05T22:58:35.015Z,13.69
2019-05-05T23:01:04.567Z,13.69
2019-05-05T23:03:40.355Z,13.72
2019-05-05T23:06:13.671Z,13.72
2019-05-05T23:08:45.275Z,13.94
2019-05-05T23:11:14.877Z,14.00
2019-05-05T23:13:44.475Z,14.07
2019-05-05T23:16:15.695Z,14.06
2019-05-05T23:18:45.293Z,14.08
2019-05-05T23:21:34.469Z,14.11
2019-05-05T23:24:08.508Z,14.13
2019-05-05T23:26:43.768Z,14.19
2019-05-05T23:29:13.760Z,14.17
2019-05-05T23:31:44.509Z,14.11
2019-05-05T23:34:14.685Z,14.11
2019-05-05T23:36:44.517Z,14.08
2019-05-05T23:39:13.985Z,14.11
2019-05-05T23:41:43.499Z,14.07
2019-05-05T23:44:14.388Z,14.20
2019-05-05T23:46:44.254Z,14.15
2019-05-05T23:49:13.912Z,14.06
2019-05-05T23:51:44.106Z,14.11
2019-05-05T23:54:14.033Z,14.01
2019-05-05T23:56:44.102Z,13.99
2019-05-05T23:59:13.721Z,13.94
